»·PEaware :: N218DF KFAT-KAPC

N218DF :: KFAT-KAPC

FLIGHT INFORMATION

Flight Status: Arrived
Operator: Privately registered:
United States
More flights under this callsign
Pilot: Larry S. (744)
Aircraft: PIPER PA-32 SARATOGA
(PA32)
More flights by this aircraft type
Origin: KFAT Fresno Yosemite Intl
United States
Destination: KAPC Napa Co
United States
More flights between these airports :: More routes between these airports
Route: +FRES5 ECA V585 LODDI V108 SGD
File this flight plan on PilotEdge
Remarks: / V /
Altitude:
(Current/Filed)
6,000ft
Speed:
(Current/Filed)
150kts
Departed: 22-Jul-12 12:20 PM
Arrived: 22-Jul-12 01:32 PM
Distance/Time
Traveled:
149nm/1:11
Distance/Time
To Go:
Arrived

Flight Plot

Page will automatically refresh every two minutes.


Map Options




Map Legend


Flown Route
Filed Route
Departure Airport
Arrival Airport
Navaid (VOR, NDB)
Fix

Horizontal Profiles

Position Reports

Time Latitude Longitude Heading Altitude Ground
Speed
22-Jul-12 11:55 36.774467 -119.724141 123 339ft 0kts
22-Jul-12 11:56 36.774467 -119.724141 123 339ft 0kts
22-Jul-12 11:57 36.774467 -119.724141 123 339ft 0kts
22-Jul-12 11:58 36.774467 -119.724141 123 339ft 0kts
22-Jul-12 11:59 36.774465 -119.724138 123 339ft 0kts
22-Jul-12 12:00 36.774465 -119.724138 123 339ft 0kts
22-Jul-12 12:01 36.774465 -119.724138 123 339ft 0kts
22-Jul-12 12:02 36.774465 -119.724138 123 339ft 0kts
22-Jul-12 12:03 36.774465 -119.724138 123 339ft 0kts
22-Jul-12 12:04 36.774465 -119.724138 123 339ft 0kts
22-Jul-12 12:05 36.774465 -119.724138 123 339ft 0kts
22-Jul-12 12:06 36.774465 -119.724138 123 339ft 0kts
22-Jul-12 12:07 36.774465 -119.724138 123 339ft 0kts
22-Jul-12 12:08 36.774465 -119.724138 123 339ft 0kts
22-Jul-12 12:09 36.774465 -119.724138 123 339ft 0kts
22-Jul-12 12:10 36.774465 -119.724138 123 339ft 0kts
22-Jul-12 12:11 36.774465 -119.724138 123 339ft 0kts
22-Jul-12 12:12 36.774465 -119.724138 123 339ft 0kts
22-Jul-12 12:13 36.774440 -119.723797 40 339ft 4kts
22-Jul-12 12:14 36.775345 -119.721645 123 339ft 14kts
22-Jul-12 12:15 36.772962 -119.716872 69 339ft 12kts
22-Jul-12 12:16 36.773235 -119.716564 43 339ft 0kts
22-Jul-12 12:18 36.773919 -119.716290 303 339ft 0kts
22-Jul-12 12:19 36.777339 -119.722408 307 339ft 83kts
22-Jul-12 12:20 36.797759 -119.750034 319 659ft 118kts
22-Jul-12 12:21 36.822493 -119.773116 320 1280ft 104kts
22-Jul-12 12:22 36.846221 -119.795783 324 1792ft 107kts
22-Jul-12 12:23 36.869655 -119.817963 319 2335ft 103kts
22-Jul-12 12:24 36.891998 -119.840560 312 2879ft 102kts
22-Jul-12 12:25 36.909887 -119.866474 311 3469ft 98kts
22-Jul-12 12:26 36.927990 -119.892617 311 3990ft 99kts
22-Jul-12 12:27 36.946106 -119.918626 309 4463ft 98kts
22-Jul-12 12:28 36.964879 -119.945309 315 4911ft 105kts
22-Jul-12 12:29 36.984742 -119.973229 314 5366ft 108kts
22-Jul-12 12:30 37.005477 -120.002035 311 5827ft 112kts
22-Jul-12 12:31 37.028221 -120.033442 310 6012ft 135kts
22-Jul-12 12:32 37.055198 -120.070819 309 5982ft 149kts
22-Jul-12 12:33 37.083131 -120.109416 310 5998ft 150kts
22-Jul-12 12:34 37.111569 -120.148568 310 6004ft 152kts
22-Jul-12 12:35 37.142591 -120.191049 311 5991ft 160kts
22-Jul-12 12:36 37.172304 -120.231510 311 6003ft 156kts
22-Jul-12 12:37 37.201851 -120.271578 311 6001ft 155kts
22-Jul-12 12:38 37.231338 -120.311405 311 6001ft 155kts
22-Jul-12 12:39 37.260870 -120.351137 311 6000ft 155kts
22-Jul-12 12:40 37.290496 -120.390840 312 5999ft 155kts
22-Jul-12 12:41 37.320173 -120.430457 312 5999ft 155kts
22-Jul-12 12:42 37.349927 -120.470022 312 5999ft 155kts
22-Jul-12 12:43 37.379753 -120.509529 312 5998ft 155kts
22-Jul-12 12:44 37.409757 -120.549116 312 5998ft 155kts
22-Jul-12 12:45 37.439725 -120.588502 312 5998ft 155kts
22-Jul-12 12:46 37.469787 -120.627859 312 5998ft 155kts
22-Jul-12 12:47 37.500034 -120.667299 312 5998ft 155kts
22-Jul-12 12:48 37.530204 -120.706460 312 5998ft 155kts
22-Jul-12 12:49 37.560302 -120.745338 311 5998ft 154kts
22-Jul-12 12:50 37.588901 -120.782093 311 5998ft 152kts
22-Jul-12 12:51 37.618265 -120.820229 301 5993ft 149kts
22-Jul-12 12:52 37.628346 -120.869268 292 5998ft 145kts
22-Jul-12 12:53 37.651875 -120.911317 307 5998ft 147kts
22-Jul-12 12:54 37.679201 -120.950229 308 5998ft 147kts
22-Jul-12 12:55 37.706228 -120.989080 308 5998ft 146kts
22-Jul-12 12:56 37.733264 -121.027949 308 5998ft 147kts
22-Jul-12 12:57 37.757594 -121.063040 308 5954ft 166kts
22-Jul-12 12:58 37.790875 -121.110773 308 5997ft 149kts
22-Jul-12 12:59 37.813587 -121.143489 308 5998ft 147kts
22-Jul-12 13:00 37.843381 -121.178323 333 6004ft 148kts
22-Jul-12 13:01 37.880591 -121.201017 330 5999ft 148kts
22-Jul-12 13:02 37.917618 -121.224092 330 5998ft 148kts
22-Jul-12 13:03 37.954688 -121.247091 330 5998ft 148kts
22-Jul-12 13:04 37.991649 -121.270038 330 5997ft 147kts
22-Jul-12 13:05 38.028470 -121.292919 330 5997ft 147kts
22-Jul-12 13:06 38.063545 -121.318774 299 5994ft 143kts
22-Jul-12 13:07 38.064370 -121.367949 267 5998ft 141kts
22-Jul-12 13:08 38.063293 -121.417934 268 5998ft 141kts
22-Jul-12 13:09 38.061932 -121.467763 268 5998ft 140kts
22-Jul-12 13:10 38.060512 -121.517668 268 5998ft 140kts
22-Jul-12 13:11 38.059079 -121.567485 268 5998ft 141kts
22-Jul-12 13:12 38.057619 -121.617305 267 5999ft 141kts
22-Jul-12 13:13 38.056156 -121.667084 269 6006ft 140kts
22-Jul-12 13:14 38.054901 -121.716803 268 6007ft 140kts
22-Jul-12 13:15 38.053404 -121.766813 268 5958ft 143kts
22-Jul-12 13:16 38.051829 -121.817237 268 5954ft 141kts
22-Jul-12 13:17 38.050169 -121.870993 268 5911ft 160kts
22-Jul-12 13:18 38.048456 -121.923807 269 5969ft 144kts
22-Jul-12 13:19 38.046858 -121.974127 269 5971ft 141kts
22-Jul-12 13:20 38.045220 -122.024077 269 5972ft 141kts
22-Jul-12 13:21 38.046769 -122.073767 276 5980ft 140kts
22-Jul-12 13:22 38.052373 -122.126335 279 5437ft 157kts
22-Jul-12 13:23 38.058219 -122.181436 275 4797ft 154kts
22-Jul-12 13:24 38.074246 -122.227592 336 4157ft 152kts
22-Jul-12 13:25 38.116050 -122.236943 352 3563ft 154kts
22-Jul-12 13:26 38.158909 -122.236973 358 2971ft 146kts
22-Jul-12 13:27 38.195414 -122.232080 8 2454ft 122kts
22-Jul-12 13:28 38.228378 -122.225642 329 1984ft 101kts
22-Jul-12 13:29 38.244307 -122.251339 270 1127ft 96kts
22-Jul-12 13:30 38.230041 -122.274619 200 181ft 84kts
22-Jul-12 13:31 38.214891 -122.281641 129 38ft 11kts
22-Jul-12 13:32 38.215157 -122.280408 72 38ft 18kts
22-Jul-12 13:33 38.216312 -122.275988 71 38ft 5kts
22-Jul-12 13:34 38.216959 -122.273967 53 38ft 0kts
22-Jul-12 13:35 38.216959 -122.273967 53 38ft 0kts
22-Jul-12 13:36 38.216959 -122.273967 53 38ft 0kts
22-Jul-12 13:38 38.216959 -122.273967 53 38ft 0kts
22-Jul-12 13:39 38.216959 -122.273967 53 38ft 0kts
22-Jul-12 13:40 38.216959 -122.273967 53 38ft 0kts

Navigation Log

Ident Type
Flight plan parsing failed, navigation log unavailable